Magne Viking — OURK2 — position and weather

sailwx.info

Track history (hours):
 
Tides and Currents Weather Stations Pressure Air Temp Water Temp Dewpoint Dewpoint Depression Visibility Wind Speed Wind Dir Waves Ship Positions

Magne Viking

Last reported at 2016-Jul-21 10:34 UTC. Time now 2016-Jul-26 06:27 UTC.
Position N 66°18' E 011°23'.

Length 85 m; draft 6.8 m.

Type: Tug. MMSI: 219375000.

Date/timePositionNaut miles runAvg speedWind from/ knotsBaromVisibWave heightAir tempDewpointWater temp
2016-Jul-21 10:34N 66°18' E 011°23'1010.1
2016-Jul-21 09:34N 66°26' E 011°37'1010.0
2016-Jul-21 08:34N 66°35' E 011°50'1010.1
2016-Jul-21 07:34N 66°43' E 012°05'4210.5
2016-Jul-21 03:33N 67°16' E 013°12'1010.6
2016-Jul-21 02:34N 67°24' E 013°28'1010.4
2016-Jul-21 01:33N 67°33' E 013°45'1110.6
2016-Jul-21 00:34N 67°41' E 014°02'1010.5
2016-Jul-20 23:34N 67°49' E 014°20'1010.1
2016-Jul-20 22:33N 67°56' E 014°39'1010.0
2016-Jul-20 21:33N 68°02' E 014°60'5410.3
2016-Jul-20 16:19N 68°42' E 016°40'1011.3
2016-Jul-20 15:28N 68°50' E 016°53'1111.0
2016-Jul-20 14:30N 68°58' E 017°11'1011.0
2016-Jul-20 13:34N 69°06' E 017°30'1111.3
2016-Jul-20 12:34N 69°11' E 017°59'9 9.2
2016-Jul-20 11:32N 69°20' E 018°02'  
Track history (hours):
 
Tides and Currents Weather Stations Pressure Air Temp Water Temp Dewpoint Dewpoint Depression Visibility Wind Speed Wind Dir Waves Ship Positions

Magne Viking

Last reported at 2016-Jul-21 10:34 UTC. Time now 2016-Jul-26 06:27 UTC.
Position N 66°18' E 011°23'.

Length 85 m; draft 6.8 m.

Type: Tug. MMSI: 219375000.

Date/timePositionNaut miles runAvg speedWind from/ knotsBaromVisibWave heightAir tempDewpointWater temp
2016-Jul-21 10:34N 66°18' E 011°23'1010.1
2016-Jul-21 09:34N 66°26' E 011°37'1010.0
2016-Jul-21 08:34N 66°35' E 011°50'1010.1
2016-Jul-21 07:34N 66°43' E 012°05'4210.5
2016-Jul-21 03:33N 67°16' E 013°12'1010.6
2016-Jul-21 02:34N 67°24' E 013°28'1010.4
2016-Jul-21 01:33N 67°33' E 013°45'1110.6
2016-Jul-21 00:34N 67°41' E 014°02'1010.5
2016-Jul-20 23:34N 67°49' E 014°20'1010.1
2016-Jul-20 22:33N 67°56' E 014°39'1010.0
2016-Jul-20 21:33N 68°02' E 014°60'5410.3
2016-Jul-20 16:19N 68°42' E 016°40'1011.3
2016-Jul-20 15:28N 68°50' E 016°53'1111.0
2016-Jul-20 14:30N 68°58' E 017°11'1011.0
2016-Jul-20 13:34N 69°06' E 017°30'1111.3
2016-Jul-20 12:34N 69°11' E 017°59'9 9.2
2016-Jul-20 11:32N 69°20' E 018°02'  

Dump ship's entire track history